Time;durP1;ratioP1;P1;durP2;ratioP2;P2;SDS_P1;SDS_P2;PMS_P1;PMS_P2;Temp;Humidity;BMP_temperature;BMP_pressure;BME280_temperature;BME280_humidity;BME280_pressure;Samples;Min_cycle;Max_cycle;Signal;HPM_P1;HPM_P2
2022/06/24 00:02:11;;;;;;;7.80;5.03;;;18.10;99.90;;;;;;5073588;28;20614;-74
2022/06/24 00:04:38;;;;;;;7.57;3.90;;;18.00;99.90;;;;;;5074018;28;20602;-74
2022/06/24 00:07:15;;;;;;;9.70;4.83;;;17.90;99.90;;;;;;5073453;28;21082;-74
2022/06/24 00:09:42;;;;;;;8.20;4.00;;;18.00;99.90;;;;;;5073849;28;20585;-73
2022/06/24 00:12:12;;;;;;;8.43;3.70;;;18.00;99.90;;;;;;5072800;28;20928;-74
2022/06/24 00:14:41;;;;;;;7.77;4.00;;;18.00;99.90;;;;;;5073687;28;20603;-74
2022/06/24 00:17:09;;;;;;;7.47;3.70;;;18.10;99.90;;;;;;5073592;28;20602;-74
2022/06/24 00:19:54;;;;;;;7.53;3.70;;;18.10;99.90;;;;;;5073415;28;21212;-75
2022/06/24 00:22:22;;;;;;;8.73;4.87;;;18.10;99.90;;;;;;5073180;28;20578;-74
2022/06/24 00:24:48;;;;;;;8.57;3.50;;;18.00;99.90;;;;;;5073711;28;20625;-74
2022/06/24 00:27:18;;;;;;;5.30;3.70;;;18.10;99.90;;;;;;5072909;28;20619;-74
2022/06/24 00:29:45;;;;;;;7.63;3.67;;;18.20;99.90;;;;;;5073868;28;21022;-75
2022/06/24 00:32:11;;;;;;;4.53;3.57;;;18.30;99.90;;;;;;5076639;28;20617;-74
2022/06/24 00:34:39;;;;;;;5.63;3.90;;;18.40;99.90;;;;;;5075538;28;20621;-74
2022/06/24 00:37:26;;;;;;;3.60;3.27;;;18.50;99.90;;;;;;5092121;28;21048;-74
2022/06/24 00:39:55;;;;;;;7.80;3.70;;;18.60;99.90;;;;;;5076718;28;20563;-74
2022/06/24 00:42:23;;;;;;;4.27;3.73;;;18.70;99.90;;;;;;5075731;28;20656;-74
2022/06/24 00:45:00;;;;;;;10.43;3.40;;;18.70;99.90;;;;;;5091329;28;20618;-74
2022/06/24 00:47:27;;;;;;;12.53;3.30;;;18.70;99.90;;;;;;5076122;28;20718;-75
2022/06/24 00:49:58;;;;;;;4.53;3.30;;;18.60;99.90;;;;;;5075842;28;20614;-75
2022/06/24 00:52:24;;;;;;;5.90;4.13;;;18.70;99.90;;;;;;5076025;28;20969;-74
2022/06/24 00:54:51;;;;;;;7.53;4.03;;;18.70;99.90;;;;;;5076184;28;20614;-74
2022/06/24 00:57:17;;;;;;;4.90;3.17;;;18.80;99.90;;;;;;5076449;28;20610;-74
2022/06/24 00:59:47;;;;;;;4.57;3.03;;;18.80;99.90;;;;;;5058538;28;20618;-74
2022/06/24 01:02:16;;;;;;;7.73;3.90;;;18.80;99.90;;;;;;5076404;28;20614;-74
2022/06/24 01:04:43;;;;;;;5.23;3.07;;;18.70;99.90;;;;;;5075775;28;20675;-74
2022/06/24 01:07:09;;;;;;;9.00;3.90;;;18.70;99.90;;;;;;5075771;28;20653;-74
2022/06/24 01:09:36;;;;;;;7.17;3.63;;;18.70;99.90;;;;;;5075915;28;20618;-74
2022/06/24 01:12:03;;;;;;;6.50;3.77;;;18.70;99.90;;;;;;5057743;28;20610;-74
2022/06/24 01:14:29;;;;;;;6.30;3.80;;;18.70;99.90;;;;;;5075611;28;20611;-74
2022/06/24 01:16:56;;;;;;;9.50;4.87;;;18.70;99.90;;;;;;5057593;28;20609;-75
2022/06/24 01:19:25;;;;;;;3.73;3.33;;;18.70;99.90;;;;;;5057623;28;21027;-74
2022/06/24 01:21:52;;;;;;;7.70;4.03;;;18.60;99.90;;;;;;5075717;28;20598;-75
2022/06/24 01:24:21;;;;;;;4.10;3.73;;;18.50;99.90;;;;;;5057937;28;20608;-74
2022/06/24 01:26:50;;;;;;;5.50;3.90;;;18.50;99.90;;;;;;5075412;28;20590;-74
2022/06/24 01:29:17;;;;;;;7.33;4.40;;;18.60;99.90;;;;;;5075492;28;21010;-74
2022/06/24 01:31:48;;;;;;;7.50;3.57;;;18.60;99.90;;;;;;5057033;28;20618;-74
2022/06/24 01:34:17;;;;;;;8.53;4.37;;;18.50;99.90;;;;;;5074410;28;20677;-75
2022/06/24 01:36:43;;;;;;;5.37;4.17;;;18.50;99.90;;;;;;5074923;28;20618;-74
2022/06/24 01:39:10;;;;;;;8.10;4.53;;;18.50;99.90;;;;;;5075419;28;20626;-74
2022/06/24 01:41:37;;;;;;;8.43;3.80;;;18.40;99.90;;;;;;5074852;28;21020;-75
2022/06/24 01:44:03;;;;;;;6.80;4.13;;;18.50;99.90;;;;;;5074983;28;20587;-74
2022/06/24 01:46:30;;;;;;;4.77;4.27;;;18.40;99.90;;;;;;5075276;28;21191;-74
2022/06/24 01:48:57;;;;;;;5.60;3.60;;;18.50;99.90;;;;;;5074752;28;20993;-74
2022/06/24 01:51:25;;;;;;;7.83;3.83;;;18.50;99.90;;;;;;5074962;28;20981;-74
2022/06/24 01:53:51;;;;;;;6.40;3.77;;;18.40;99.90;;;;;;5056486;28;20650;-74
2022/06/24 01:56:18;;;;;;;13.53;3.70;;;18.30;99.90;;;;;;5074447;28;20617;-75
2022/06/24 01:58:45;;;;;;;4.50;3.70;;;18.30;99.90;;;;;;5074965;28;20610;-75
2022/06/24 02:01:12;;;;;;;10.17;4.50;;;18.30;99.90;;;;;;5074943;28;20599;-75
2022/06/24 02:03:39;;;;;;;10.33;4.43;;;18.40;99.90;;;;;;5075129;28;20614;-75
2022/06/24 02:06:07;;;;;;;5.27;3.83;;;18.50;99.90;;;;;;5073609;28;20665;-75
2022/06/24 02:08:34;;;;;;;4.37;4.00;;;18.50;99.90;;;;;;5074875;28;20601;-75
2022/06/24 02:13:47;;;;;;;4.17;3.67;;;18.30;99.90;;;;;;5059579;28;20691;-74
2022/06/24 02:16:15;;;;;;;6.23;3.87;;;18.40;99.90;;;;;;5074728;28;20607;-75
2022/06/24 02:18:41;;;;;;;7.27;4.47;;;18.40;99.90;;;;;;5074716;28;20714;-74
2022/06/24 02:21:08;;;;;;;3.97;3.27;;;18.40;99.90;;;;;;5074315;28;20595;-74
2022/06/24 02:23:35;;;;;;;5.13;4.03;;;18.30;99.90;;;;;;5074063;28;20648;-75
2022/06/24 02:26:02;;;;;;;8.43;3.93;;;18.20;99.90;;;;;;5074241;28;20615;-74
2022/06/24 02:28:28;;;;;;;5.33;4.43;;;18.20;99.90;;;;;;5073929;28;20622;-74
2022/06/24 02:30:57;;;;;;;8.10;4.23;;;18.20;99.90;;;;;;5074103;28;20614;-74
2022/06/24 02:33:25;;;;;;;4.90;3.93;;;18.20;99.90;;;;;;5055939;28;21074;-74
2022/06/24 02:35:52;;;;;;;6.63;4.30;;;18.20;99.90;;;;;;5074613;28;20655;-74
2022/06/24 02:38:19;;;;;;;6.77;4.73;;;18.10;99.90;;;;;;5073908;28;20629;-74
2022/06/24 02:40:45;;;;;;;11.20;5.17;;;18.10;99.90;;;;;;5074344;28;20606;-74
2022/06/24 02:43:32;;;;;;;5.60;4.63;;;18.00;99.90;;;;;;5056775;28;20614;-75
2022/06/24 02:46:10;;;;;;;6.70;5.20;;;18.00;99.90;;;;;;5073832;28;20969;-74
2022/06/24 02:48:38;;;;;;;6.70;5.27;;;18.00;99.90;;;;;;5073804;28;21334;-74
2022/06/24 02:51:09;;;;;;;10.50;5.77;;;18.00;99.90;;;;;;5073192;28;20602;-75
2022/06/24 02:53:36;;;;;;;5.33;4.83;;;17.90;99.90;;;;;;5072933;28;21027;-74
2022/06/24 02:56:09;;;;;;;7.50;5.53;;;18.00;99.90;;;;;;5073495;28;20943;-75
2022/06/24 02:58:37;;;;;;;8.87;5.57;;;18.00;99.90;;;;;;5073121;28;20618;-74
2022/06/24 03:01:04;;;;;;;8.70;5.77;;;18.00;99.90;;;;;;5073856;28;20607;-74
2022/06/24 03:03:31;;;;;;;6.63;5.43;;;18.00;99.90;;;;;;5073972;28;20607;-74
2022/06/24 03:05:58;;;;;;;6.80;5.07;;;18.00;99.90;;;;;;5073180;28;21038;-74
2022/06/24 03:08:26;;;;;;;8.53;6.40;;;17.90;99.90;;;;;;5073413;28;20618;-74
2022/06/24 03:10:54;;;;;;;10.30;6.40;;;17.80;99.90;;;;;;5073677;28;20637;-74
2022/06/24 03:13:21;;;;;;;9.80;6.80;;;17.90;99.90;;;;;;5073970;28;20661;-75
2022/06/24 03:15:48;;;;;;;9.40;6.13;;;17.90;99.90;;;;;;5038802;28;20628;-74
2022/06/24 03:18:15;;;;;;;7.63;6.30;;;17.90;99.90;;;;;;5038891;28;21188;-74
2022/06/24 03:20:42;;;;;;;9.80;6.30;;;17.90;99.90;;;;;;5055904;28;20607;-74
2022/06/24 03:23:08;;;;;;;7.60;6.70;;;17.80;99.90;;;;;;5055724;28;20623;-73
2022/06/24 03:25:35;;;;;;;10.03;6.37;;;17.80;99.90;;;;;;5073763;28;20610;-73
2022/06/24 03:28:04;;;;;;;7.43;6.70;;;17.80;99.90;;;;;;5073147;28;21173;-75
2022/06/24 03:30:34;;;;;;;10.13;7.43;;;17.70;99.90;;;;;;5073078;28;20614;-73
2022/06/24 03:33:01;;;;;;;8.63;7.70;;;17.70;99.90;;;;;;5039143;28;20668;-74
2022/06/24 03:35:28;;;;;;;7.47;6.13;;;17.70;99.90;;;;;;5055672;28;20591;-74
2022/06/24 03:37:55;;;;;;;8.20;6.07;;;17.70;99.90;;;;;;5073809;28;20602;-74
2022/06/24 03:40:21;;;;;;;10.00;6.53;;;17.70;99.90;;;;;;5073594;28;20609;-74
2022/06/24 03:42:48;;;;;;;10.47;6.43;;;17.60;99.90;;;;;;5073689;28;20602;-74
2022/06/24 03:45:14;;;;;;;6.57;5.83;;;17.60;99.90;;;;;;5073089;28;21167;-74
2022/06/24 03:47:41;;;;;;;10.60;7.07;;;17.60;99.90;;;;;;5072859;28;20638;-74
2022/06/24 03:50:08;;;;;;;9.37;7.00;;;17.60;99.90;;;;;;5055066;28;20974;-74
2022/06/24 03:52:34;;;;;;;9.80;6.43;;;17.50;99.90;;;;;;5073236;28;20624;-74
2022/06/24 03:55:01;;;;;;;10.63;7.80;;;17.60;99.90;;;;;;5072981;28;20675;-74
2022/06/24 03:57:27;;;;;;;10.20;6.57;;;17.60;99.90;;;;;;5055588;28;20594;-74
2022/06/24 03:59:54;;;;;;;10.43;7.20;;;17.60;99.90;;;;;;5073326;28;20602;-74
2022/06/24 04:02:21;;;;;;;10.47;7.53;;;17.70;99.90;;;;;;5087823;28;20619;-74
2022/06/24 04:04:48;;;;;;;10.77;8.63;;;17.80;99.90;;;;;;5072642;28;20633;-74
2022/06/24 04:07:14;;;;;;;17.60;8.50;;;17.70;99.90;;;;;;5075902;28;20638;-74
2022/06/24 04:09:41;;;;;;;12.63;8.07;;;17.80;99.90;;;;;;5077353;28;20606;-74
2022/06/24 04:12:07;;;;;;;14.40;9.20;;;17.70;99.90;;;;;;5078401;28;20622;-74
2022/06/24 04:17:19;;;;;;;14.30;9.83;;;17.60;99.90;;;;;;5076818;28;20969;-74
2022/06/24 04:19:45;;;;;;;12.87;9.40;;;17.70;99.90;;;;;;5076693;28;20680;-73
2022/06/24 04:22:11;;;;;;;12.50;9.60;;;17.70;99.90;;;;;;5076320;28;21161;-74
2022/06/24 04:24:38;;;;;;;10.50;9.40;;;17.70;99.90;;;;;;5058178;28;20619;-75
2022/06/24 04:27:05;;;;;;;12.13;10.50;;;17.70;99.90;;;;;;5076313;28;20929;-74
2022/06/24 04:29:31;;;;;;;20.80;11.60;;;17.70;99.90;;;;;;5076226;28;20610;-75
2022/06/24 04:31:58;;;;;;;14.70;11.10;;;17.70;99.90;;;;;;5074368;28;20629;-75
2022/06/24 04:34:24;;;;;;;18.97;11.33;;;17.70;99.90;;;;;;5076070;28;21230;-74
2022/06/24 04:36:51;;;;;;;15.03;13.40;;;17.80;99.90;;;;;;5075989;28;20617;-74
2022/06/24 04:39:17;;;;;;;20.03;13.83;;;17.80;99.90;;;;;;5076903;28;20708;-74
2022/06/24 04:41:43;;;;;;;14.47;12.20;;;17.80;99.90;;;;;;5074507;28;20606;-74
2022/06/24 04:44:10;;;;;;;16.77;13.20;;;17.90;99.90;;;;;;5076066;28;20632;-74
2022/06/24 04:46:36;;;;;;;15.63;12.50;;;17.90;99.90;;;;;;5076417;28;20614;-74
2022/06/24 04:49:03;;;;;;;19.27;13.40;;;18.00;99.90;;;;;;5076466;28;20639;-74
2022/06/24 04:51:29;;;;;;;16.53;13.23;;;18.00;99.90;;;;;;5077120;28;20602;-74
2022/06/24 04:53:56;;;;;;;20.40;13.17;;;18.10;99.90;;;;;;5075805;28;20649;-74
2022/06/24 04:56:22;;;;;;;20.03;13.50;;;18.20;99.90;;;;;;5076250;28;20610;-74
2022/06/24 04:58:49;;;;;;;17.20;13.17;;;18.30;99.90;;;;;;5076526;28;20671;-74
2022/06/24 05:01:16;;;;;;;20.47;13.03;;;18.30;99.90;;;;;;5058760;28;20621;-74
2022/06/24 05:03:45;;;;;;;14.27;11.87;;;18.40;99.90;;;;;;5076389;28;20606;-73
2022/06/24 05:06:12;;;;;;;17.83;11.90;;;18.40;99.90;;;;;;5076381;28;21093;-74
2022/06/24 05:08:39;;;;;;;13.03;11.50;;;18.40;99.90;;;;;;5076245;28;21244;-74
2022/06/24 05:11:06;;;;;;;20.60;12.80;;;18.50;99.90;;;;;;5076559;28;20610;-74
2022/06/24 05:13:32;;;;;;;20.00;12.40;;;18.60;99.90;;;;;;5076787;28;20635;-73
2022/06/24 05:15:59;;;;;;;20.97;11.30;;;18.80;99.90;;;;;;5076451;28;20577;-74
2022/06/24 05:18:25;;;;;;;11.87;10.80;;;18.80;99.90;;;;;;5075575;28;21237;-73
2022/06/24 05:20:52;;;;;;;15.70;10.30;;;18.90;99.90;;;;;;5074204;28;20622;-73
2022/06/24 05:23:18;;;;;;;15.43;10.80;;;18.80;99.90;;;;;;5057858;28;20618;-74
2022/06/24 05:25:45;;;;;;;15.03;10.13;;;18.90;99.90;;;;;;5073668;28;20610;-73
2022/06/24 05:28:11;;;;;;;16.83;10.10;;;18.80;99.90;;;;;;5075675;28;20610;-74
2022/06/24 05:30:37;;;;;;;11.80;9.20;;;19.00;99.90;;;;;;5075281;28;20614;-73
2022/06/24 05:33:04;;;;;;;15.73;10.00;;;18.80;99.90;;;;;;5057294;28;20622;-73
2022/06/24 05:35:31;;;;;;;9.17;8.40;;;18.80;99.90;;;;;;5057682;28;21178;-73
2022/06/24 05:37:57;;;;;;;17.07;8.20;;;19.00;99.90;;;;;;5074957;28;20594;-74
2022/06/24 05:40:24;;;;;;;15.20;7.87;;;19.00;99.90;;;;;;5074765;28;20610;-74
2022/06/24 05:42:50;;;;;;;11.10;8.00;;;19.00;99.90;;;;;;5075504;28;20610;-73
2022/06/24 05:45:17;;;;;;;12.43;8.70;;;19.10;99.90;;;;;;5075080;28;20609;-70
2022/06/24 05:47:43;;;;;;;16.00;8.30;;;19.00;99.90;;;;;;5075296;28;20642;-73
2022/06/24 05:50:10;;;;;;;15.23;8.80;;;19.20;99.90;;;;;;5057062;28;20614;-75
2022/06/24 05:55:21;;;;;;;16.53;8.90;;;19.00;99.90;;;;;;5074693;28;20705;-75
2022/06/24 05:57:48;;;;;;;11.23;7.40;;;19.10;99.90;;;;;;5056413;28;21165;-75
2022/06/24 06:00:15;;;;;;;12.77;8.07;;;19.10;99.90;;;;;;5056978;28;20614;-75
2022/06/24 06:02:42;;;;;;;13.50;8.67;;;19.30;99.90;;;;;;5056525;28;20607;-75
2022/06/24 06:05:08;;;;;;;9.37;7.93;;;19.40;99.90;;;;;;5057629;28;20963;-76
2022/06/24 06:07:34;;;;;;;8.87;8.03;;;19.40;99.90;;;;;;5074076;28;20998;-75
2022/06/24 06:10:01;;;;;;;9.43;7.40;;;19.70;99.90;;;;;;5074606;28;20603;-75
2022/06/24 06:12:27;;;;;;;11.60;7.73;;;19.40;99.90;;;;;;5056556;28;20610;-76
2022/06/24 06:14:54;;;;;;;11.83;6.60;;;19.60;99.90;;;;;;5074699;28;20654;-76
2022/06/24 06:17:20;;;;;;;10.57;7.60;;;19.90;99.90;;;;;;5074291;28;20618;-76
2022/06/24 06:19:47;;;;;;;12.50;6.07;;;20.00;99.90;;;;;;5023812;28;20630;-76
2022/06/24 06:22:16;;;;;;;8.47;6.37;;;20.10;99.90;;;;;;5040742;28;21260;-75
2022/06/24 06:24:43;;;;;;;6.17;5.57;;;20.30;99.90;;;;;;5075241;28;20599;-76
2022/06/24 06:27:10;;;;;;;7.80;5.17;;;20.40;99.90;;;;;;5074929;28;21157;-75
2022/06/24 06:29:36;;;;;;;6.23;4.43;;;20.40;99.90;;;;;;5074272;28;20610;-74
2022/06/24 06:32:03;;;;;;;5.63;4.13;;;20.50;99.90;;;;;;5074949;28;20610;-76
2022/06/24 06:34:30;;;;;;;12.63;4.20;;;20.50;99.90;;;;;;5056690;28;20650;-76
2022/06/24 06:36:56;;;;;;;4.87;3.27;;;20.60;99.90;;;;;;5057345;28;20618;-76
2022/06/24 06:39:23;;;;;;;4.60;3.90;;;20.70;99.90;;;;;;5058579;28;21165;-74
2022/06/24 06:41:49;;;;;;;5.27;3.67;;;20.90;99.90;;;;;;5077461;28;20961;-74
2022/06/24 06:44:16;;;;;;;5.40;3.17;;;21.00;99.90;;;;;;5090523;28;21002;-74
2022/06/24 06:46:43;;;;;;;3.23;2.87;;;20.90;99.90;;;;;;5075423;28;20591;-75
2022/06/24 06:49:09;;;;;;;5.23;3.10;;;21.20;99.90;;;;;;5074720;28;21183;-74
2022/06/24 06:51:36;;;;;;;6.63;2.93;;;21.40;99.90;;;;;;5073838;28;20617;-73
2022/06/24 06:54:02;;;;;;;7.60;3.80;;;21.50;99.90;;;;;;5088974;28;20772;-73
2022/06/24 06:56:29;;;;;;;5.80;2.77;;;21.40;99.90;;;;;;5074592;28;20610;-75
2022/06/24 06:58:55;;;;;;;6.47;3.43;;;21.50;99.90;;;;;;5074036;28;21160;-74
2022/06/24 07:01:22;;;;;;;4.83;2.33;;;21.60;99.90;;;;;;5074410;28;20602;-75
2022/06/24 07:03:48;;;;;;;7.10;2.90;;;21.90;99.90;;;;;;5074193;28;20618;-75
2022/06/24 07:06:15;;;;;;;3.50;2.30;;;21.70;99.90;;;;;;5039236;28;21264;-74
2022/06/24 07:08:41;;;;;;;3.43;2.50;;;21.70;99.90;;;;;;5056153;28;20615;-74
2022/06/24 07:11:08;;;;;;;4.93;2.27;;;21.90;99.90;;;;;;5074148;28;20614;-74
2022/06/24 07:13:34;;;;;;;6.60;2.83;;;22.00;99.90;;;;;;5055998;28;20593;-74
2022/06/24 07:16:01;;;;;;;2.30;1.87;;;22.00;99.90;;;;;;5055487;28;21035;-74
2022/06/24 07:18:27;;;;;;;4.80;2.00;;;21.90;99.90;;;;;;5073335;28;20966;-74
2022/06/24 07:20:53;;;;;;;2.53;2.00;;;21.90;99.90;;;;;;5073591;28;20606;-74
2022/06/24 07:23:20;;;;;;;2.90;2.27;;;21.60;99.90;;;;;;5073431;28;20617;-75
2022/06/24 07:25:46;;;;;;;4.77;2.67;;;21.80;99.90;;;;;;5073397;28;20615;-75
2022/06/24 07:28:13;;;;;;;5.17;2.67;;;22.20;99.90;;;;;;5073501;28;20618;-76
2022/06/24 07:30:39;;;;;;;4.77;2.50;;;21.70;99.90;;;;;;5073239;28;20602;-75
2022/06/24 07:33:06;;;;;;;4.13;2.70;;;21.60;99.90;;;;;;5055432;28;20619;-76
2022/06/24 07:35:33;;;;;;;3.63;2.60;;;21.60;99.90;;;;;;5055723;28;20657;-74
2022/06/24 07:37:59;;;;;;;5.00;3.80;;;21.70;99.90;;;;;;5071964;28;20622;-74
2022/06/24 07:40:27;;;;;;;8.17;3.10;;;22.10;99.90;;;;;;5090390;28;20617;-74
2022/06/24 07:42:54;;;;;;;7.97;3.17;;;22.00;99.90;;;;;;5059575;28;20614;-75
2022/06/24 07:45:22;;;;;;;4.20;2.60;;;22.00;99.90;;;;;;5059851;28;20648;-75
2022/06/24 07:47:48;;;;;;;7.33;2.63;;;21.90;99.90;;;;;;5077873;28;20638;-74
2022/06/24 07:50:15;;;;;;;2.80;2.50;;;22.00;99.90;;;;;;5077575;28;20618;-74
2022/06/24 07:52:41;;;;;;;5.53;2.80;;;22.20;99.90;;;;;;5076840;28;21159;-74
2022/06/24 07:57:53;;;;;;;3.80;2.13;;;22.30;99.90;;;;;;5077755;28;20578;-74
2022/06/24 08:00:20;;;;;;;5.40;2.13;;;22.20;99.90;;;;;;5077710;28;20614;-75
2022/06/24 08:02:47;;;;;;;3.10;2.10;;;22.20;99.90;;;;;;5059143;28;20645;-74
2022/06/24 08:05:13;;;;;;;6.93;3.33;;;22.20;99.90;;;;;;5077067;28;20622;-74
2022/06/24 08:07:40;;;;;;;3.27;2.60;;;21.70;99.90;;;;;;5076288;28;20668;-74
2022/06/24 08:10:07;;;;;;;5.20;2.20;;;21.70;99.90;;;;;;5076248;28;20691;-75
2022/06/24 08:12:33;;;;;;;2.33;1.90;;;21.90;99.90;;;;;;5059099;28;20620;-74
2022/06/24 08:15:00;;;;;;;2.60;2.40;;;21.80;99.90;;;;;;5076931;28;20654;-74
2022/06/24 08:17:27;;;;;;;3.03;2.10;;;21.80;99.90;;;;;;5076581;28;20610;-75
2022/06/24 08:19:53;;;;;;;3.23;1.93;;;21.70;99.90;;;;;;5076836;28;20617;-75
2022/06/24 08:22:23;;;;;;;12.47;2.67;;;21.90;99.90;;;;;;5076237;28;20602;-73
2022/06/24 08:24:49;;;;;;;4.77;2.10;;;21.90;99.90;;;;;;5076503;28;20645;-75
2022/06/24 08:27:16;;;;;;;4.30;1.97;;;22.10;99.90;;;;;;5076899;28;20610;-75
2022/06/24 08:29:42;;;;;;;7.37;2.80;;;22.30;99.90;;;;;;5076480;28;20612;-74
2022/06/24 08:32:09;;;;;;;4.30;2.03;;;22.40;99.90;;;;;;5076561;28;20671;-74
2022/06/24 08:34:36;;;;;;;2.70;1.60;;;22.70;99.90;;;;;;5076657;28;20650;-75
2022/06/24 08:37:02;;;;;;;2.00;1.90;;;22.70;99.90;;;;;;5077030;28;20618;-73
2022/06/24 08:39:29;;;;;;;4.20;2.30;;;22.90;99.90;;;;;;5075862;28;20613;-72
2022/06/24 08:41:57;;;;;;;3.73;2.03;;;23.00;99.90;;;;;;5091237;28;20626;-74
2022/06/24 08:44:24;;;;;;;5.30;2.97;;;22.70;99.90;;;;;;5076385;28;20633;-74
2022/06/24 08:46:51;;;;;;;3.87;1.77;;;23.10;99.90;;;;;;5075798;28;20622;-75
2022/06/24 08:49:18;;;;;;;4.53;1.73;;;22.90;99.90;;;;;;5075985;28;20622;-75
2022/06/24 08:51:47;;;;;;;3.00;1.90;;;23.00;99.90;;;;;;5074836;28;20621;-75
2022/06/24 08:54:17;;;;;;;1.80;1.70;;;22.50;99.90;;;;;;5075206;28;21107;-73
2022/06/24 08:56:44;;;;;;;4.10;1.93;;;22.60;99.90;;;;;;5057753;28;20567;-73
2022/06/24 08:59:11;;;;;;;2.53;2.17;;;22.70;99.90;;;;;;5075139;28;20618;-72
2022/06/24 09:01:39;;;;;;;1.70;1.60;;;22.90;99.90;;;;;;5075247;28;20610;-73
2022/06/24 09:04:07;;;;;;;1.73;1.63;;;22.70;99.90;;;;;;5074719;28;20633;-74
2022/06/24 09:06:41;;;;;;;1.83;1.60;;;22.70;99.90;;;;;;5075475;28;20661;-73
2022/06/24 09:09:10;;;;;;;3.43;2.43;;;23.50;99.90;;;;;;5075336;28;20578;-73
2022/06/24 09:11:42;;;;;;;4.37;1.90;;;23.10;99.90;;;;;;5075407;28;20983;-73
2022/06/24 09:14:09;;;;;;;2.60;1.80;;;23.10;99.90;;;;;;5075392;28;20669;-73
2022/06/24 09:16:37;;;;;;;2.47;1.63;;;23.10;99.90;;;;;;5075284;28;20618;-72
2022/06/24 09:19:06;;;;;;;1.87;1.57;;;23.50;99.90;;;;;;5058006;28;21011;-74
2022/06/24 09:21:39;;;;;;;2.00;1.80;;;23.30;99.90;;;;;;5075324;28;20610;-72
2022/06/24 09:24:07;;;;;;;1.63;1.53;;;22.80;99.90;;;;;;5074800;28;20626;-73
2022/06/24 09:26:39;;;;;;;2.10;2.00;;;23.00;99.90;;;;;;5075684;28;20609;-73
2022/06/24 09:29:12;;;;;;;4.27;2.27;;;23.40;99.90;;;;;;5074926;28;20617;-72
2022/06/24 09:31:39;;;;;;;3.67;2.13;;;23.50;99.90;;;;;;5074809;28;20567;-72
2022/06/24 09:34:14;;;;;;;2.53;2.33;;;23.50;99.90;;;;;;5075146;28;20625;-72
2022/06/24 09:36:43;;;;;;;2.23;1.90;;;23.50;99.90;;;;;;5074894;28;20937;-73
2022/06/24 09:39:13;;;;;;;2.10;2.00;;;23.20;99.90;;;;;;5074927;28;20602;-74
2022/06/24 09:41:47;;;;;;;2.47;1.70;;;23.80;99.90;;;;;;5075133;28;20614;-73
2022/06/24 09:44:14;;;;;;;2.23;1.77;;;23.70;99.90;;;;;;5074851;28;20606;-73
2022/06/24 09:46:41;;;;;;;3.00;1.93;;;24.20;99.90;;;;;;5074220;28;20637;-72
2022/06/24 09:49:13;;;;;;;2.50;2.33;;;24.50;99.90;;;;;;5074627;28;20698;-72
2022/06/24 09:51:44;;;;;;;7.23;2.10;;;24.20;99.90;;;;;;5074621;28;20582;-72
2022/06/24 09:54:13;;;;;;;2.50;2.40;;;25.10;99.90;;;;;;5074031;28;20644;-73
2022/06/24 09:56:40;;;;;;;3.10;1.60;;;24.90;99.90;;;;;;5073751;28;20615;-74
2022/06/24 10:01:54;;;;;;;1.90;1.80;;;24.90;99.90;;;;;;5074712;28;20575;-73
2022/06/24 10:04:21;;;;;;;2.13;1.90;;;24.50;99.90;;;;;;5074078;28;20629;-73
2022/06/24 10:06:49;;;;;;;2.00;1.60;;;25.30;99.90;;;;;;5073841;28;20658;-74
2022/06/24 10:09:28;;;;;;;1.70;1.60;;;24.40;99.90;;;;;;5074400;28;20621;-73
2022/06/24 10:11:57;;;;;;;3.90;2.03;;;24.80;99.90;;;;;;5073977;28;20629;-72
2022/06/24 10:14:29;;;;;;;3.30;1.87;;;25.50;99.90;;;;;;5073596;28;20662;-73
2022/06/24 10:16:56;;;;;;;2.10;2.00;;;25.20;99.90;;;;;;5074293;28;20571;-73
2022/06/24 10:19:25;;;;;;;4.73;2.00;;;25.80;99.90;;;;;;5073358;28;20630;-73
2022/06/24 10:21:52;;;;;;;2.70;2.50;;;25.70;99.90;;;;;;5073850;28;20606;-73
2022/06/24 10:24:18;;;;;;;3.53;2.20;;;25.40;99.90;;;;;;5073866;28;20606;-73
2022/06/24 10:26:47;;;;;;;3.73;1.70;;;25.10;99.90;;;;;;5039565;28;20606;-73
2022/06/24 10:29:19;;;;;;;2.13;2.03;;;25.00;99.90;;;;;;5073902;28;20606;-73
2022/06/24 10:31:49;;;;;;;3.60;1.87;;;25.30;99.90;;;;;;5073903;28;20602;-73
2022/06/24 10:34:20;;;;;;;1.83;1.70;;;25.50;99.90;;;;;;5073639;28;20963;-72
2022/06/24 10:36:48;;;;;;;1.60;1.50;;;24.80;99.90;;;;;;5073087;28;20612;-72
2022/06/24 10:39:17;;;;;;;2.30;1.60;;;25.40;99.90;;;;;;5074035;28;20598;-73
2022/06/24 10:41:44;;;;;;;3.67;1.80;;;25.50;99.90;;;;;;5073819;28;20609;-72
2022/06/24 10:44:31;;;;;;;3.90;1.80;;;25.40;99.90;;;;;;5074046;28;20632;-73
2022/06/24 10:47:12;;;;;;;1.70;1.60;;;25.90;99.90;;;;;;5073692;28;20567;-73
2022/06/24 10:50:12;;;;;;;2.40;2.07;;;25.90;99.90;;;;;;5074095;28;20610;-73
2022/06/24 10:52:47;;;;;;;1.90;1.80;;;26.40;99.90;;;;;;5073561;28;20622;-73
2022/06/24 10:55:16;;;;;;;3.07;2.00;;;25.70;99.90;;;;;;5073877;28;20657;-74
2022/06/24 10:57:47;;;;;;;1.83;1.73;;;25.00;99.90;;;;;;5073615;28;20610;-74
2022/06/24 11:00:17;;;;;;;2.10;2.00;;;24.90;99.90;;;;;;5074373;28;20574;-75
2022/06/24 11:02:45;;;;;;;2.33;2.23;;;25.20;99.90;;;;;;5075795;28;20980;-75
2022/06/24 11:05:22;;;;;;;1.90;1.80;;;25.30;99.90;;;;;;5075359;28;20610;-75
2022/06/24 11:07:49;;;;;;;2.10;1.90;;;25.60;99.90;;;;;;5073127;28;20654;-75
2022/06/24 11:10:16;;;;;;;2.00;1.90;;;26.30;99.90;;;;;;5073888;28;20613;-75
2022/06/24 11:12:54;;;;;;;2.93;2.20;;;26.50;99.90;;;;;;5073375;28;20606;-75
2022/06/24 11:15:38;;;;;;;3.20;2.30;;;27.20;99.90;;;;;;5073315;28;21233;-75
2022/06/24 11:18:28;;;;;;;5.03;2.40;;;27.20;99.90;;;;;;5088529;28;20949;-75
2022/06/24 11:21:02;;;;;;;1.93;1.83;;;27.60;99.90;;;;;;5073890;28;20578;-74
2022/06/24 11:23:30;;;;;;;2.30;2.10;;;27.10;99.90;;;;;;5073647;28;20622;-76
2022/06/24 11:26:06;;;;;;;2.40;2.00;;;27.00;99.90;;;;;;5056429;28;20964;-75
2022/06/24 11:28:35;;;;;;;3.40;2.30;;;27.70;99.90;;;;;;5073652;28;21164;-73
2022/06/24 11:31:19;;;;;;;2.20;2.10;;;28.70;99.90;;;;;;5056079;28;20620;-75
2022/06/24 11:34:10;;;;;;;2.73;2.53;;;28.50;99.90;;;;;;5073361;28;20617;-74
2022/06/24 11:36:38;;;;;;;2.57;2.33;;;26.70;99.90;;;;;;5063973;28;20674;-75
2022/06/24 11:39:09;;;;;;;2.20;1.80;;;26.70;99.90;;;;;;5073427;28;20618;-75
2022/06/24 11:41:38;;;;;;;3.33;2.20;;;26.00;99.90;;;;;;5073735;28;21256;-75
2022/06/24 11:44:04;;;;;;;6.60;2.30;;;26.40;99.90;;;;;;5055911;28;20627;-75
2022/06/24 11:46:34;;;;;;;2.60;2.20;;;26.60;99.90;;;;;;5072811;28;20641;-74
2022/06/24 11:49:07;;;;;;;2.50;2.10;;;27.00;99.90;;;;;;5073697;28;20638;-75
2022/06/24 11:51:34;;;;;;;3.03;2.10;;;27.00;99.90;;;;;;5088373;28;20621;-74
2022/06/24 11:54:07;;;;;;;1.90;1.80;;;26.70;99.90;;;;;;5077689;28;21104;-74
2022/06/24 11:56:35;;;;;;;2.10;2.00;;;26.30;99.90;;;;;;5073526;28;20637;-73
2022/06/24 11:59:04;;;;;;;3.73;2.10;;;26.50;99.90;;;;;;5073655;28;20609;-74
2022/06/24 12:01:32;;;;;;;2.00;1.90;;;26.50;99.90;;;;;;5073732;28;20606;-73
2022/06/24 12:04:01;;;;;;;2.70;2.07;;;26.40;99.90;;;;;;5072738;28;20606;-73
2022/06/24 12:06:29;;;;;;;1.90;1.80;;;26.40;99.90;;;;;;5073253;28;20658;-74
2022/06/24 12:09:00;;;;;;;3.20;1.70;;;26.60;99.90;;;;;;5073754;28;20969;-74
2022/06/24 12:11:26;;;;;;;2.20;2.00;;;26.60;99.90;;;;;;5056538;28;21160;-74
2022/06/24 12:14:02;;;;;;;1.93;1.83;;;26.60;99.90;;;;;;5072708;28;20995;-75
2022/06/24 12:17:08;;;;;;;1.77;1.67;;;26.50;99.90;;;;;;5073235;28;20637;-74
2022/06/24 12:19:55;;;;;;;1.80;1.70;;;27.10;99.90;;;;;;5072977;28;20602;-74
2022/06/24 12:22:22;;;;;;;1.60;1.50;;;27.20;99.90;;;;;;5073533;28;20567;-73
2022/06/24 12:25:00;;;;;;;2.27;1.73;;;27.30;99.90;;;;;;5055725;28;20606;-74
2022/06/24 12:27:38;;;;;;;1.77;1.67;;;27.50;99.90;;;;;;5074955;28;20626;-74
2022/06/24 12:30:07;;;;;;;2.00;1.90;;;27.30;99.90;;;;;;5076632;28;21211;-74
2022/06/24 12:32:51;;;;;;;1.90;1.80;;;27.90;99.90;;;;;;5076031;28;20976;-74
2022/06/24 12:35:34;;;;;;;2.00;1.83;;;28.20;99.90;;;;;;5076051;28;20666;-73
2022/06/24 12:38:12;;;;;;;5.03;2.07;;;28.40;99.90;;;;;;5076779;28;20570;-74
2022/06/24 12:40:40;;;;;;;2.00;1.90;;;27.70;99.90;;;;;;5076527;28;20618;-74
2022/06/24 12:43:08;;;;;;;2.30;2.10;;;27.60;99.90;;;;;;5076477;28;20783;-73
2022/06/24 12:45:40;;;;;;;6.07;2.30;;;28.30;99.90;;;;;;5078785;28;20609;-76
2022/06/24 12:51:14;;;;;;;3.23;2.30;;;29.40;99.90;;;;;;5086196;28;20601;-76
2022/06/24 12:53:49;;;;;;;2.10;1.90;;;30.00;99.90;;;;;;5070425;28;20625;-75
2022/06/24 12:56:16;;;;;;;15.40;4.30;;;30.10;99.90;;;;;;5102702;28;20741;-73
2022/06/24 12:58:42;;;;;;;2.63;2.20;;;30.20;99.90;;;;;;5078482;28;20590;-74
2022/06/24 13:01:09;;;;;;;6.53;2.40;;;29.10;99.90;;;;;;5077250;28;21171;-73
2022/06/24 13:03:35;;;;;;;6.83;3.00;;;29.20;99.90;;;;;;5058513;28;20968;-73
2022/06/24 13:06:02;;;;;;;6.10;2.03;;;28.30;99.90;;;;;;5058809;28;21204;-73
2022/06/24 13:08:28;;;;;;;5.40;2.47;;;28.30;99.90;;;;;;5077013;28;20578;-74